sensor_id;sensor_type;location;lat;lon;timestamp;temperature;humidity
39033;DHT22;24794;51.982;5.878;2023-08-06T00:00:39;17.30;99.90
39033;DHT22;24794;51.982;5.878;2023-08-06T00:01:40;17.30;99.90
39033;DHT22;24794;51.982;5.878;2023-08-06T00:02:41;17.30;99.90
39033;DHT22;24794;51.982;5.878;2023-08-06T00:03:41;17.30;99.90
39033;DHT22;24794;51.982;5.878;2023-08-06T00:04:41;17.30;99.90
39033;DHT22;24794;51.982;5.878;2023-08-06T00:05:43;17.30;99.90
39033;DHT22;24794;51.982;5.878;2023-08-06T00:06:43;17.30;99.90
39033;DHT22;24794;51.982;5.878;2023-08-06T00:07:44;17.30;99.90
39033;DHT22;24794;51.982;5.878;2023-08-06T00:08:45;17.30;99.90
39033;DHT22;24794;51.982;5.878;2023-08-06T00:09:46;17.30;99.90
39033;DHT22;24794;51.982;5.878;2023-08-06T00:10:48;17.30;99.90
39033;DHT22;24794;51.982;5.878;2023-08-06T00:11:49;17.30;99.90
39033;DHT22;24794;51.982;5.878;2023-08-06T00:12:49;17.30;99.90
39033;DHT22;24794;51.982;5.878;2023-08-06T00:13:50;17.30;99.90
39033;DHT22;24794;51.982;5.878;2023-08-06T00:14:51;17.30;99.90
39033;DHT22;24794;51.982;5.878;2023-08-06T00:15:52;17.30;99.90
39033;DHT22;24794;51.982;5.878;2023-08-06T00:16:53;17.30;99.90
39033;DHT22;24794;51.982;5.878;2023-08-06T00:17:53;17.40;99.90
39033;DHT22;24794;51.982;5.878;2023-08-06T00:18:54;17.30;99.90
39033;DHT22;24794;51.982;5.878;2023-08-06T00:19:54;17.40;99.90
39033;DHT22;24794;51.982;5.878;2023-08-06T00:20:55;17.30;99.90
39033;DHT22;24794;51.982;5.878;2023-08-06T00:21:55;17.30;99.90
39033;DHT22;24794;51.982;5.878;2023-08-06T00:22:56;17.40;99.90
39033;DHT22;24794;51.982;5.878;2023-08-06T00:23:56;17.40;99.90
39033;DHT22;24794;51.982;5.878;2023-08-06T00:24:58;17.40;99.90
39033;DHT22;24794;51.982;5.878;2023-08-06T00:25:58;17.40;99.90
39033;DHT22;24794;51.982;5.878;2023-08-06T00:26:59;17.40;99.90
39033;DHT22;24794;51.982;5.878;2023-08-06T00:27:59;17.40;99.90
39033;DHT22;24794;51.982;5.878;2023-08-06T00:29:00;17.40;99.90
39033;DHT22;24794;51.982;5.878;2023-08-06T00:30:00;17.40;99.90
39033;DHT22;24794;51.982;5.878;2023-08-06T00:31:01;17.40;99.90
39033;DHT22;24794;51.982;5.878;2023-08-06T00:32:01;17.40;99.90
39033;DHT22;24794;51.982;5.878;2023-08-06T00:33:02;17.40;99.90
39033;DHT22;24794;51.982;5.878;2023-08-06T00:34:02;17.40;99.90
39033;DHT22;24794;51.982;5.878;2023-08-06T00:35:04;17.40;99.90
39033;DHT22;24794;51.982;5.878;2023-08-06T00:36:04;17.40;99.90
39033;DHT22;24794;51.982;5.878;2023-08-06T00:37:05;17.40;99.90
39033;DHT22;24794;51.982;5.878;2023-08-06T00:38:05;17.40;99.90
39033;DHT22;24794;51.982;5.878;2023-08-06T00:39:06;17.40;99.90
39033;DHT22;24794;51.982;5.878;2023-08-06T00:40:07;17.40;99.90
39033;DHT22;24794;51.982;5.878;2023-08-06T00:41:08;17.30;99.90
39033;DHT22;24794;51.982;5.878;2023-08-06T00:42:10;17.40;99.90
39033;DHT22;24794;51.982;5.878;2023-08-06T00:43:10;17.30;99.90
39033;DHT22;24794;51.982;5.878;2023-08-06T00:44:11;17.30;99.90
39033;DHT22;24794;51.982;5.878;2023-08-06T00:45:11;17.30;99.90
39033;DHT22;24794;51.982;5.878;2023-08-06T00:46:12;17.30;99.90
39033;DHT22;24794;51.982;5.878;2023-08-06T00:47:13;17.30;99.90
39033;DHT22;24794;51.982;5.878;2023-08-06T00:48:14;17.30;99.90
39033;DHT22;24794;51.982;5.878;2023-08-06T00:49:15;17.20;99.90
39033;DHT22;24794;51.982;5.878;2023-08-06T00:50:16;17.20;99.90
39033;DHT22;24794;51.982;5.878;2023-08-06T00:51:17;17.20;99.90
39033;DHT22;24794;51.982;5.878;2023-08-06T00:52:19;17.10;99.90
39033;DHT22;24794;51.982;5.878;2023-08-06T00:53:19;17.10;99.90
39033;DHT22;24794;51.982;5.878;2023-08-06T00:54:20;17.10;99.90
39033;DHT22;24794;51.982;5.878;2023-08-06T00:55:20;17.10;99.90
39033;DHT22;24794;51.982;5.878;2023-08-06T00:56:21;17.00;99.90
39033;DHT22;24794;51.982;5.878;2023-08-06T00:57:24;17.00;99.90
39033;DHT22;24794;51.982;5.878;2023-08-06T00:58:26;17.00;99.90
39033;DHT22;24794;51.982;5.878;2023-08-06T00:59:27;17.00;99.90
39033;DHT22;24794;51.982;5.878;2023-08-06T01:00:28;17.00;99.90
39033;DHT22;24794;51.982;5.878;2023-08-06T01:01:28;17.00;99.90
39033;DHT22;24794;51.982;5.878;2023-08-06T01:02:29;17.00;99.90
39033;DHT22;24794;51.982;5.878;2023-08-06T01:03:30;17.00;99.90
39033;DHT22;24794;51.982;5.878;2023-08-06T01:04:30;17.00;99.90
39033;DHT22;24794;51.982;5.878;2023-08-06T01:05:31;17.00;99.90
39033;DHT22;24794;51.982;5.878;2023-08-06T01:06:46;16.90;99.90
39033;DHT22;24794;51.982;5.878;2023-08-06T01:09:45;16.90;99.90
39033;DHT22;24794;51.982;5.878;2023-08-06T01:13:48;17.00;99.90
39033;DHT22;24794;51.982;5.878;2023-08-06T01:15:12;16.90;99.90
39033;DHT22;24794;51.982;5.878;2023-08-06T01:16:16;17.00;99.90
39033;DHT22;24794;51.982;5.878;2023-08-06T01:17:17;17.00;99.90
39033;DHT22;24794;51.982;5.878;2023-08-06T01:18:18;17.00;99.90
39033;DHT22;24794;51.982;5.878;2023-08-06T01:19:19;17.00;99.90
39033;DHT22;24794;51.982;5.878;2023-08-06T01:20:20;17.00;99.90
39033;DHT22;24794;51.982;5.878;2023-08-06T01:21:21;17.00;99.90
39033;DHT22;24794;51.982;5.878;2023-08-06T01:22:21;17.00;99.90
39033;DHT22;24794;51.982;5.878;2023-08-06T01:23:22;17.00;99.90
39033;DHT22;24794;51.982;5.878;2023-08-06T01:24:23;17.00;99.90
39033;DHT22;24794;51.982;5.878;2023-08-06T01:25:34;17.00;99.90
39033;DHT22;24794;51.982;5.878;2023-08-06T01:26:42;17.00;99.90
39033;DHT22;24794;51.982;5.878;2023-08-06T01:27:46;17.00;99.90
39033;DHT22;24794;51.982;5.878;2023-08-06T01:29:23;17.00;99.90
39033;DHT22;24794;51.982;5.878;2023-08-06T01:30:31;17.00;99.90
39033;DHT22;24794;51.982;5.878;2023-08-06T01:31:38;17.00;99.90
39033;DHT22;24794;51.982;5.878;2023-08-06T01:32:44;17.00;99.90
39033;DHT22;24794;51.982;5.878;2023-08-06T01:33:46;17.00;99.90
39033;DHT22;24794;51.982;5.878;2023-08-06T01:34:49;16.90;99.90
39033;DHT22;24794;51.982;5.878;2023-08-06T01:35:51;16.90;99.90
39033;DHT22;24794;51.982;5.878;2023-08-06T01:36:52;16.90;99.90
39033;DHT22;24794;51.982;5.878;2023-08-06T01:37:53;17.00;99.90
39033;DHT22;24794;51.982;5.878;2023-08-06T01:38:56;16.90;99.90
39033;DHT22;24794;51.982;5.878;2023-08-06T01:39:57;16.90;99.90
39033;DHT22;24794;51.982;5.878;2023-08-06T01:40:58;16.90;99.90
39033;DHT22;24794;51.982;5.878;2023-08-06T01:41:58;16.90;99.90
39033;DHT22;24794;51.982;5.878;2023-08-06T01:42:59;16.80;99.90
39033;DHT22;24794;51.982;5.878;2023-08-06T01:43:59;16.90;99.90
39033;DHT22;24794;51.982;5.878;2023-08-06T01:45:00;16.80;99.90
39033;DHT22;24794;51.982;5.878;2023-08-06T01:46:00;16.80;99.90
39033;DHT22;24794;51.982;5.878;2023-08-06T01:47:01;16.80;99.90
39033;DHT22;24794;51.982;5.878;2023-08-06T01:48:01;16.80;99.90
39033;DHT22;24794;51.982;5.878;2023-08-06T01:49:02;16.80;99.90
39033;DHT22;24794;51.982;5.878;2023-08-06T01:50:03;16.70;99.90
39033;DHT22;24794;51.982;5.878;2023-08-06T01:51:04;16.80;99.90
39033;DHT22;24794;51.982;5.878;2023-08-06T01:52:06;16.80;99.90
39033;DHT22;24794;51.982;5.878;2023-08-06T01:53:06;16.70;99.90
39033;DHT22;24794;51.982;5.878;2023-08-06T01:54:07;16.70;99.90
39033;DHT22;24794;51.982;5.878;2023-08-06T01:55:08;16.70;99.90
39033;DHT22;24794;51.982;5.878;2023-08-06T01:56:08;16.70;99.90
39033;DHT22;24794;51.982;5.878;2023-08-06T01:57:09;16.70;99.90
39033;DHT22;24794;51.982;5.878;2023-08-06T01:58:09;16.70;99.90
39033;DHT22;24794;51.982;5.878;2023-08-06T01:59:09;16.70;99.90
39033;DHT22;24794;51.982;5.878;2023-08-06T02:00:11;16.70;99.90
39033;DHT22;24794;51.982;5.878;2023-08-06T02:01:11;16.70;99.90
39033;DHT22;24794;51.982;5.878;2023-08-06T02:02:12;16.70;99.90
39033;DHT22;24794;51.982;5.878;2023-08-06T02:03:12;16.70;99.90
39033;DHT22;24794;51.982;5.878;2023-08-06T02:04:13;16.70;99.90
39033;DHT22;24794;51.982;5.878;2023-08-06T02:05:13;16.70;99.90
39033;DHT22;24794;51.982;5.878;2023-08-06T02:06:14;16.70;99.90
39033;DHT22;24794;51.982;5.878;2023-08-06T02:07:14;16.70;99.90
39033;DHT22;24794;51.982;5.878;2023-08-06T02:08:15;16.70;99.90
39033;DHT22;24794;51.982;5.878;2023-08-06T02:09:15;16.70;99.90
39033;DHT22;24794;51.982;5.878;2023-08-06T02:10:16;16.70;99.90
39033;DHT22;24794;51.982;5.878;2023-08-06T02:11:16;16.70;99.90
39033;DHT22;24794;51.982;5.878;2023-08-06T02:12:18;16.70;99.90
39033;DHT22;24794;51.982;5.878;2023-08-06T02:13:19;16.70;99.90
39033;DHT22;24794;51.982;5.878;2023-08-06T02:14:19;16.80;99.90
39033;DHT22;24794;51.982;5.878;2023-08-06T02:15:20;16.80;99.90
39033;DHT22;24794;51.982;5.878;2023-08-06T02:16:20;16.80;99.90
39033;DHT22;24794;51.982;5.878;2023-08-06T02:17:21;16.80;99.90
39033;DHT22;24794;51.982;5.878;2023-08-06T02:18:21;16.80;99.90
39033;DHT22;24794;51.982;5.878;2023-08-06T02:19:22;16.80;99.90
39033;DHT22;24794;51.982;5.878;2023-08-06T02:20:22;16.80;99.90
39033;DHT22;24794;51.982;5.878;2023-08-06T02:21:23;16.70;99.90
39033;DHT22;24794;51.982;5.878;2023-08-06T02:22:23;16.70;99.90
39033;DHT22;24794;51.982;5.878;2023-08-06T02:23:25;16.80;99.90
39033;DHT22;24794;51.982;5.878;2023-08-06T02:24:25;16.70;99.90
39033;DHT22;24794;51.982;5.878;2023-08-06T02:25:26;16.70;99.90
39033;DHT22;24794;51.982;5.878;2023-08-06T02:26:26;16.70;99.90
39033;DHT22;24794;51.982;5.878;2023-08-06T02:27:27;16.70;99.90
39033;DHT22;24794;51.982;5.878;2023-08-06T02:28:28;16.70;99.90
39033;DHT22;24794;51.982;5.878;2023-08-06T02:29:28;16.60;99.90
39033;DHT22;24794;51.982;5.878;2023-08-06T02:30:29;16.60;99.90
39033;DHT22;24794;51.982;5.878;2023-08-06T02:31:30;16.60;99.90
39033;DHT22;24794;51.982;5.878;2023-08-06T02:32:31;16.60;99.90
39033;DHT22;24794;51.982;5.878;2023-08-06T02:33:32;16.60;99.90
39033;DHT22;24794;51.982;5.878;2023-08-06T02:34:33;16.60;99.90
39033;DHT22;24794;51.982;5.878;2023-08-06T02:35:33;16.60;99.90
39033;DHT22;24794;51.982;5.878;2023-08-06T02:36:34;16.60;99.90
39033;DHT22;24794;51.982;5.878;2023-08-06T02:37:34;16.60;99.90
39033;DHT22;24794;51.982;5.878;2023-08-06T02:38:35;16.60;99.90
39033;DHT22;24794;51.982;5.878;2023-08-06T02:39:35;16.60;99.90
39033;DHT22;24794;51.982;5.878;2023-08-06T02:40:46;16.60;99.90
39033;DHT22;24794;51.982;5.878;2023-08-06T02:41:47;16.60;99.90
39033;DHT22;24794;51.982;5.878;2023-08-06T02:42:48;16.60;99.90
39033;DHT22;24794;51.982;5.878;2023-08-06T02:43:48;16.60;99.90
39033;DHT22;24794;51.982;5.878;2023-08-06T02:44:49;16.60;99.90
39033;DHT22;24794;51.982;5.878;2023-08-06T02:45:49;16.60;99.90
39033;DHT22;24794;51.982;5.878;2023-08-06T02:46:50;16.60;99.90
39033;DHT22;24794;51.982;5.878;2023-08-06T02:47:50;16.60;99.90
39033;DHT22;24794;51.982;5.878;2023-08-06T02:48:51;16.60;99.90
39033;DHT22;24794;51.982;5.878;2023-08-06T02:49:51;16.60;99.90
39033;DHT22;24794;51.982;5.878;2023-08-06T02:50:52;16.60;99.90
39033;DHT22;24794;51.982;5.878;2023-08-06T02:51:53;16.60;99.90
39033;DHT22;24794;51.982;5.878;2023-08-06T02:52:53;16.60;99.90
39033;DHT22;24794;51.982;5.878;2023-08-06T02:53:54;16.60;99.90
39033;DHT22;24794;51.982;5.878;2023-08-06T02:54:54;16.60;99.90
39033;DHT22;24794;51.982;5.878;2023-08-06T02:55:55;16.60;99.90
39033;DHT22;24794;51.982;5.878;2023-08-06T02:56:55;16.60;99.90
39033;DHT22;24794;51.982;5.878;2023-08-06T02:57:56;16.60;99.90
39033;DHT22;24794;51.982;5.878;2023-08-06T02:58:56;16.70;99.90
39033;DHT22;24794;51.982;5.878;2023-08-06T02:59:57;16.70;99.90
39033;DHT22;24794;51.982;5.878;2023-08-06T03:01:02;16.70;99.90
39033;DHT22;24794;51.982;5.878;2023-08-06T03:02:03;16.70;99.90
39033;DHT22;24794;51.982;5.878;2023-08-06T03:03:04;16.70;99.90
39033;DHT22;24794;51.982;5.878;2023-08-06T03:04:04;16.70;99.90
39033;DHT22;24794;51.982;5.878;2023-08-06T03:05:05;16.70;99.90
39033;DHT22;24794;51.982;5.878;2023-08-06T03:06:06;16.70;99.90
39033;DHT22;24794;51.982;5.878;2023-08-06T03:07:07;16.70;99.90
39033;DHT22;24794;51.982;5.878;2023-08-06T03:08:07;16.70;99.90
39033;DHT22;24794;51.982;5.878;2023-08-06T03:09:08;16.70;99.90
39033;DHT22;24794;51.982;5.878;2023-08-06T03:10:09;16.70;99.90
39033;DHT22;24794;51.982;5.878;2023-08-06T03:11:09;16.80;99.90
39033;DHT22;24794;51.982;5.878;2023-08-06T03:12:10;16.80;99.90
39033;DHT22;24794;51.982;5.878;2023-08-06T03:13:10;16.70;99.90
39033;DHT22;24794;51.982;5.878;2023-08-06T03:14:11;16.80;99.90
39033;DHT22;24794;51.982;5.878;2023-08-06T03:15:11;16.80;99.90
39033;DHT22;24794;51.982;5.878;2023-08-06T03:16:12;16.80;99.90
39033;DHT22;24794;51.982;5.878;2023-08-06T03:17:12;16.80;99.90
39033;DHT22;24794;51.982;5.878;2023-08-06T03:18:13;16.80;99.90
39033;DHT22;24794;51.982;5.878;2023-08-06T03:19:13;16.80;99.90
39033;DHT22;24794;51.982;5.878;2023-08-06T03:20:14;16.80;99.90
39033;DHT22;24794;51.982;5.878;2023-08-06T03:21:14;16.90;99.90
39033;DHT22;24794;51.982;5.878;2023-08-06T03:22:15;16.90;99.90
39033;DHT22;24794;51.982;5.878;2023-08-06T03:23:15;16.90;99.90
39033;DHT22;24794;51.982;5.878;2023-08-06T03:24:16;16.90;99.90
39033;DHT22;24794;51.982;5.878;2023-08-06T03:25:16;16.90;99.90
39033;DHT22;24794;51.982;5.878;2023-08-06T03:26:18;16.90;99.90
39033;DHT22;24794;51.982;5.878;2023-08-06T03:27:18;16.90;99.90
39033;DHT22;24794;51.982;5.878;2023-08-06T03:28:19;16.90;99.90
39033;DHT22;24794;51.982;5.878;2023-08-06T03:29:19;16.80;99.90
39033;DHT22;24794;51.982;5.878;2023-08-06T03:30:21;16.80;99.90
39033;DHT22;24794;51.982;5.878;2023-08-06T03:31:22;16.80;99.90
39033;DHT22;24794;51.982;5.878;2023-08-06T03:32:22;16.80;99.90
39033;DHT22;24794;51.982;5.878;2023-08-06T03:33:23;16.80;99.90
39033;DHT22;24794;51.982;5.878;2023-08-06T03:34:23;16.80;99.90
39033;DHT22;24794;51.982;5.878;2023-08-06T03:35:24;16.70;99.90
39033;DHT22;24794;51.982;5.878;2023-08-06T03:36:24;16.70;99.90
39033;DHT22;24794;51.982;5.878;2023-08-06T03:37:25;16.70;99.90
39033;DHT22;24794;51.982;5.878;2023-08-06T03:38:25;16.70;99.90
39033;DHT22;24794;51.982;5.878;2023-08-06T03:39:26;16.70;99.90
39033;DHT22;24794;51.982;5.878;2023-08-06T03:40:26;16.70;99.90
39033;DHT22;24794;51.982;5.878;2023-08-06T03:41:27;16.70;99.90
39033;DHT22;24794;51.982;5.878;2023-08-06T03:42:27;16.70;99.90
39033;DHT22;24794;51.982;5.878;2023-08-06T03:43:28;16.70;99.90
39033;DHT22;24794;51.982;5.878;2023-08-06T03:44:28;16.70;99.90
39033;DHT22;24794;51.982;5.878;2023-08-06T03:45:29;16.70;99.90
39033;DHT22;24794;51.982;5.878;2023-08-06T03:46:29;16.70;99.90
39033;DHT22;24794;51.982;5.878;2023-08-06T03:47:34;16.70;99.90
39033;DHT22;24794;51.982;5.878;2023-08-06T03:48:34;16.70;99.90
39033;DHT22;24794;51.982;5.878;2023-08-06T03:49:35;16.70;99.90
39033;DHT22;24794;51.982;5.878;2023-08-06T03:50:35;16.70;99.90
39033;DHT22;24794;51.982;5.878;2023-08-06T03:51:36;16.70;99.90
39033;DHT22;24794;51.982;5.878;2023-08-06T03:52:36;16.70;99.90
39033;DHT22;24794;51.982;5.878;2023-08-06T03:53:37;16.70;99.90
39033;DHT22;24794;51.982;5.878;2023-08-06T03:54:37;16.70;99.90
39033;DHT22;24794;51.982;5.878;2023-08-06T03:55:39;16.70;99.90
39033;DHT22;24794;51.982;5.878;2023-08-06T03:56:39;16.80;99.90
39033;DHT22;24794;51.982;5.878;2023-08-06T03:57:40;16.80;99.90
39033;DHT22;24794;51.982;5.878;2023-08-06T03:58:41;16.80;99.90
39033;DHT22;24794;51.982;5.878;2023-08-06T03:59:41;16.80;99.90
39033;DHT22;24794;51.982;5.878;2023-08-06T04:00:42;16.80;99.90
39033;DHT22;24794;51.982;5.878;2023-08-06T04:01:42;16.80;99.90
39033;DHT22;24794;51.982;5.878;2023-08-06T04:02:43;16.80;99.90
39033;DHT22;24794;51.982;5.878;2023-08-06T04:03:43;16.90;99.90
39033;DHT22;24794;51.982;5.878;2023-08-06T04:04:44;16.80;99.90
39033;DHT22;24794;51.982;5.878;2023-08-06T04:05:44;16.80;99.90
39033;DHT22;24794;51.982;5.878;2023-08-06T04:06:45;16.80;99.90
39033;DHT22;24794;51.982;5.878;2023-08-06T04:07:45;16.80;99.90
39033;DHT22;24794;51.982;5.878;2023-08-06T04:08:46;16.90;99.90
39033;DHT22;24794;51.982;5.878;2023-08-06T04:09:58;16.90;99.90
39033;DHT22;24794;51.982;5.878;2023-08-06T04:10:59;16.90;99.90
39033;DHT22;24794;51.982;5.878;2023-08-06T04:11:59;16.90;99.90
39033;DHT22;24794;51.982;5.878;2023-08-06T04:13:01;16.90;99.90
39033;DHT22;24794;51.982;5.878;2023-08-06T04:14:02;16.90;99.90
39033;DHT22;24794;51.982;5.878;2023-08-06T04:15:03;16.90;99.90
39033;DHT22;24794;51.982;5.878;2023-08-06T04:16:04;16.90;99.90
39033;DHT22;24794;51.982;5.878;2023-08-06T04:17:04;16.90;99.90
39033;DHT22;24794;51.982;5.878;2023-08-06T04:18:05;16.90;99.90
39033;DHT22;24794;51.982;5.878;2023-08-06T04:19:05;16.90;99.90
39033;DHT22;24794;51.982;5.878;2023-08-06T04:20:06;16.90;99.90
39033;DHT22;24794;51.982;5.878;2023-08-06T04:21:07;16.90;99.90
39033;DHT22;24794;51.982;5.878;2023-08-06T04:22:07;16.90;99.90
39033;DHT22;24794;51.982;5.878;2023-08-06T04:23:08;16.90;99.90
39033;DHT22;24794;51.982;5.878;2023-08-06T04:24:08;17.00;99.90
39033;DHT22;24794;51.982;5.878;2023-08-06T04:25:09;16.90;99.90
39033;DHT22;24794;51.982;5.878;2023-08-06T04:26:10;17.00;99.90
39033;DHT22;24794;51.982;5.878;2023-08-06T04:27:11;16.90;99.90
39033;DHT22;24794;51.982;5.878;2023-08-06T04:28:12;17.00;99.90
39033;DHT22;24794;51.982;5.878;2023-08-06T04:29:12;17.00;99.90
39033;DHT22;24794;51.982;5.878;2023-08-06T04:30:13;17.00;99.90
39033;DHT22;24794;51.982;5.878;2023-08-06T04:31:13;17.00;99.90
39033;DHT22;24794;51.982;5.878;2023-08-06T04:32:14;17.00;99.90
39033;DHT22;24794;51.982;5.878;2023-08-06T04:33:14;17.00;99.90
39033;DHT22;24794;51.982;5.878;2023-08-06T04:34:15;17.00;99.90
39033;DHT22;24794;51.982;5.878;2023-08-06T04:35:15;17.00;99.90
39033;DHT22;24794;51.982;5.878;2023-08-06T04:36:16;17.00;99.90
39033;DHT22;24794;51.982;5.878;2023-08-06T04:37:16;17.00;99.90
39033;DHT22;24794;51.982;5.878;2023-08-06T04:38:17;17.00;99.90
39033;DHT22;24794;51.982;5.878;2023-08-06T04:39:17;17.00;99.90
39033;DHT22;24794;51.982;5.878;2023-08-06T04:40:18;17.00;99.90
39033;DHT22;24794;51.982;5.878;2023-08-06T04:41:18;17.00;99.90
39033;DHT22;24794;51.982;5.878;2023-08-06T04:42:19;17.00;99.90
39033;DHT22;24794;51.982;5.878;2023-08-06T04:43:19;17.00;99.90
39033;DHT22;24794;51.982;5.878;2023-08-06T04:44:20;17.00;99.90
39033;DHT22;24794;51.982;5.878;2023-08-06T04:45:21;17.10;99.90
39033;DHT22;24794;51.982;5.878;2023-08-06T04:46:22;17.10;99.90
39033;DHT22;24794;51.982;5.878;2023-08-06T04:47:22;17.10;99.90
39033;DHT22;24794;51.982;5.878;2023-08-06T04:48:23;17.10;99.90
39033;DHT22;24794;51.982;5.878;2023-08-06T04:49:24;17.10;99.90
39033;DHT22;24794;51.982;5.878;2023-08-06T04:50:25;17.10;99.90
39033;DHT22;24794;51.982;5.878;2023-08-06T04:51:25;17.10;99.90
39033;DHT22;24794;51.982;5.878;2023-08-06T04:52:26;17.10;99.90
39033;DHT22;24794;51.982;5.878;2023-08-06T04:53:28;17.10;99.90
39033;DHT22;24794;51.982;5.878;2023-08-06T04:54:29;17.10;99.90
39033;DHT22;24794;51.982;5.878;2023-08-06T04:55:29;17.20;99.90
39033;DHT22;24794;51.982;5.878;2023-08-06T04:56:29;17.20;99.90
39033;DHT22;24794;51.982;5.878;2023-08-06T04:57:30;17.10;99.90
39033;DHT22;24794;51.982;5.878;2023-08-06T04:58:30;17.10;99.90
39033;DHT22;24794;51.982;5.878;2023-08-06T04:59:31;17.10;99.90
39033;DHT22;24794;51.982;5.878;2023-08-06T05:00:32;17.10;99.90
39033;DHT22;24794;51.982;5.878;2023-08-06T05:01:32;17.10;99.90
39033;DHT22;24794;51.982;5.878;2023-08-06T05:02:33;17.10;99.90
39033;DHT22;24794;51.982;5.878;2023-08-06T05:03:34;17.10;99.90
39033;DHT22;24794;51.982;5.878;2023-08-06T05:04:35;17.10;99.90
39033;DHT22;24794;51.982;5.878;2023-08-06T05:05:35;17.10;99.90
39033;DHT22;24794;51.982;5.878;2023-08-06T05:06:36;17.00;99.90
39033;DHT22;24794;51.982;5.878;2023-08-06T05:07:38;17.00;99.90
39033;DHT22;24794;51.982;5.878;2023-08-06T05:08:39;17.00;99.90
39033;DHT22;24794;51.982;5.878;2023-08-06T05:09:39;17.00;99.90
39033;DHT22;24794;51.982;5.878;2023-08-06T05:10:42;17.00;99.90
39033;DHT22;24794;51.982;5.878;2023-08-06T05:11:43;17.10;99.90
39033;DHT22;24794;51.982;5.878;2023-08-06T05:12:43;17.10;99.90
39033;DHT22;24794;51.982;5.878;2023-08-06T05:13:44;17.10;99.90
39033;DHT22;24794;51.982;5.878;2023-08-06T05:14:44;17.10;99.90
39033;DHT22;24794;51.982;5.878;2023-08-06T05:15:45;17.10;99.90
39033;DHT22;24794;51.982;5.878;2023-08-06T05:16:46;17.10;99.90
39033;DHT22;24794;51.982;5.878;2023-08-06T05:17:47;17.10;99.90
39033;DHT22;24794;51.982;5.878;2023-08-06T05:18:47;17.10;99.90
39033;DHT22;24794;51.982;5.878;2023-08-06T05:19:48;17.10;99.90
39033;DHT22;24794;51.982;5.878;2023-08-06T05:20:49;17.20;99.90
39033;DHT22;24794;51.982;5.878;2023-08-06T05:21:50;17.20;99.90
39033;DHT22;24794;51.982;5.878;2023-08-06T05:22:50;17.20;99.90
39033;DHT22;24794;51.982;5.878;2023-08-06T05:23:51;17.20;99.90
39033;DHT22;24794;51.982;5.878;2023-08-06T05:24:52;17.20;99.90
39033;DHT22;24794;51.982;5.878;2023-08-06T05:25:52;17.20;99.90
39033;DHT22;24794;51.982;5.878;2023-08-06T05:26:53;17.20;99.90
39033;DHT22;24794;51.982;5.878;2023-08-06T05:27:53;17.20;99.90
39033;DHT22;24794;51.982;5.878;2023-08-06T05:28:54;17.20;99.90
39033;DHT22;24794;51.982;5.878;2023-08-06T05:29:57;17.20;99.90
39033;DHT22;24794;51.982;5.878;2023-08-06T05:30:58;17.20;99.90
39033;DHT22;24794;51.982;5.878;2023-08-06T05:31:58;17.20;99.90
39033;DHT22;24794;51.982;5.878;2023-08-06T05:32:59;17.20;99.90
39033;DHT22;24794;51.982;5.878;2023-08-06T05:33:59;17.30;99.90
39033;DHT22;24794;51.982;5.878;2023-08-06T05:34:59;17.30;99.90
39033;DHT22;24794;51.982;5.878;2023-08-06T05:36:00;17.30;99.90
39033;DHT22;24794;51.982;5.878;2023-08-06T05:37:01;17.30;99.90
39033;DHT22;24794;51.982;5.878;2023-08-06T05:38:01;17.30;99.90
39033;DHT22;24794;51.982;5.878;2023-08-06T05:39:02;17.30;99.90
39033;DHT22;24794;51.982;5.878;2023-08-06T05:40:02;17.30;99.90
39033;DHT22;24794;51.982;5.878;2023-08-06T05:41:04;17.30;99.90
39033;DHT22;24794;51.982;5.878;2023-08-06T05:42:05;17.30;99.90
39033;DHT22;24794;51.982;5.878;2023-08-06T05:43:05;17.30;99.90
39033;DHT22;24794;51.982;5.878;2023-08-06T05:44:06;17.30;99.90
39033;DHT22;24794;51.982;5.878;2023-08-06T05:45:07;17.30;99.90
39033;DHT22;24794;51.982;5.878;2023-08-06T05:46:08;17.30;99.90
39033;DHT22;24794;51.982;5.878;2023-08-06T05:47:08;17.30;99.90
39033;DHT22;24794;51.982;5.878;2023-08-06T05:48:09;17.30;99.90
39033;DHT22;24794;51.982;5.878;2023-08-06T05:49:09;17.30;99.90
39033;DHT22;24794;51.982;5.878;2023-08-06T05:50:10;17.40;99.90
39033;DHT22;24794;51.982;5.878;2023-08-06T05:51:10;17.40;99.90
39033;DHT22;24794;51.982;5.878;2023-08-06T05:52:13;17.40;99.90
39033;DHT22;24794;51.982;5.878;2023-08-06T05:53:14;17.40;99.90
39033;DHT22;24794;51.982;5.878;2023-08-06T05:54:14;17.40;99.90
39033;DHT22;24794;51.982;5.878;2023-08-06T05:55:15;17.40;99.90
39033;DHT22;24794;51.982;5.878;2023-08-06T05:56:16;17.40;99.90
39033;DHT22;24794;51.982;5.878;2023-08-06T05:57:17;17.40;99.90
39033;DHT22;24794;51.982;5.878;2023-08-06T05:58:17;17.30;99.90
39033;DHT22;24794;51.982;5.878;2023-08-06T05:59:20;17.40;99.90
39033;DHT22;24794;51.982;5.878;2023-08-06T06:00:21;17.40;99.90
39033;DHT22;24794;51.982;5.878;2023-08-06T06:01:22;17.40;99.90
39033;DHT22;24794;51.982;5.878;2023-08-06T06:02:22;17.40;99.90
39033;DHT22;24794;51.982;5.878;2023-08-06T06:03:23;17.40;99.90
39033;DHT22;24794;51.982;5.878;2023-08-06T06:04:23;17.40;99.90
39033;DHT22;24794;51.982;5.878;2023-08-06T06:05:24;17.40;99.90
39033;DHT22;24794;51.982;5.878;2023-08-06T06:06:24;17.40;99.90
39033;DHT22;24794;51.982;5.878;2023-08-06T06:07:25;17.40;99.90
39033;DHT22;24794;51.982;5.878;2023-08-06T06:08:25;17.40;99.90
39033;DHT22;24794;51.982;5.878;2023-08-06T06:09:26;17.40;99.90
39033;DHT22;24794;51.982;5.878;2023-08-06T06:10:26;17.40;99.90
39033;DHT22;24794;51.982;5.878;2023-08-06T06:11:27;17.40;99.90
39033;DHT22;24794;51.982;5.878;2023-08-06T06:12:27;17.40;99.90
39033;DHT22;24794;51.982;5.878;2023-08-06T06:13:28;17.40;99.90
39033;DHT22;24794;51.982;5.878;2023-08-06T06:14:28;17.30;99.90
39033;DHT22;24794;51.982;5.878;2023-08-06T06:15:29;17.40;99.90
39033;DHT22;24794;51.982;5.878;2023-08-06T06:16:29;17.40;99.90
39033;DHT22;24794;51.982;5.878;2023-08-06T06:17:30;17.40;99.90
39033;DHT22;24794;51.982;5.878;2023-08-06T06:18:31;17.40;99.90
39033;DHT22;24794;51.982;5.878;2023-08-06T06:19:31;17.40;99.90
39033;DHT22;24794;51.982;5.878;2023-08-06T06:20:32;17.40;99.90
39033;DHT22;24794;51.982;5.878;2023-08-06T06:21:33;17.40;99.90
39033;DHT22;24794;51.982;5.878;2023-08-06T06:22:34;17.40;99.90
39033;DHT22;24794;51.982;5.878;2023-08-06T06:23:34;17.40;99.90
39033;DHT22;24794;51.982;5.878;2023-08-06T06:24:35;17.40;99.90
39033;DHT22;24794;51.982;5.878;2023-08-06T06:25:35;17.40;99.90
39033;DHT22;24794;51.982;5.878;2023-08-06T06:26:36;17.40;99.90
39033;DHT22;24794;51.982;5.878;2023-08-06T06:27:36;17.40;99.90
39033;DHT22;24794;51.982;5.878;2023-08-06T06:28:37;17.40;99.90
39033;DHT22;24794;51.982;5.878;2023-08-06T06:29:37;17.40;99.90
39033;DHT22;24794;51.982;5.878;2023-08-06T06:30:38;17.40;99.90